Terminal Aerodrome Forecast
Issued by NWS

Home | Current Version | Previous Version | Text Only | Print | Product List | Glossary On
Versions: 1 2 3 4 5 6 7 8 9 10 11 12 13 14
000
FTUS46 KSEW 281100
TAFBFI
TAF
KBFI 281130Z 2812/2912 20012G18KT P6SM VCSH SCT019 SCT024 BKN090
      TEMPO 2812/2816 BKN019 BKN030
     FM282000 21010G16KT P6SM VCSH SCT021 BKN035 BKN060
     FM290400 VRB03KT P6SM SCT045 BKN080 OVC180
     FM291000 VRB03KT P6SM OVC080=

USA.gov is the U.S. government's official web portal to all federal, state and local government web resources and services.